createdAt,value
2024-04-19T00:00:12.640Z,5.24
2024-04-19T00:01:12.717Z,5.37
2024-04-19T00:02:12.593Z,5.32
2024-04-19T00:03:12.630Z,5.44
2024-04-19T00:04:12.766Z,5.52
2024-04-19T00:05:12.536Z,5.48
2024-04-19T00:06:12.554Z,5.41
2024-04-19T00:07:12.503Z,5.45
2024-04-19T00:08:12.485Z,5.47
2024-04-19T00:09:12.490Z,5.42
2024-04-19T00:10:12.457Z,5.42
2024-04-19T00:11:12.502Z,5.40
2024-04-19T00:12:12.453Z,5.45
2024-04-19T00:13:12.403Z,5.40
2024-04-19T00:14:12.396Z,5.32
2024-04-19T00:15:12.400Z,5.37
2024-04-19T00:16:12.350Z,5.40
2024-04-19T00:17:12.335Z,5.38
2024-04-19T00:18:12.373Z,5.45
2024-04-19T00:19:12.346Z,5.47
2024-04-19T00:20:12.289Z,5.47
2024-04-19T00:21:12.324Z,5.42
2024-04-19T00:22:12.260Z,5.42
2024-04-19T00:23:12.242Z,5.48
2024-04-19T00:24:12.485Z,5.47
2024-04-19T00:25:12.205Z,5.45
2024-04-19T00:26:12.187Z,5.48
2024-04-19T00:27:12.197Z,5.45
2024-04-19T00:28:12.173Z,5.48
2024-04-19T00:29:12.138Z,5.44
2024-04-19T00:30:12.177Z,5.47
2024-04-19T00:31:12.108Z,5.47
2024-04-19T00:32:12.123Z,5.47
2024-04-19T00:33:14.431Z,5.44
2024-04-19T00:34:12.142Z,5.45
2024-04-19T00:35:12.050Z,5.44
2024-04-19T00:36:12.085Z,5.42
2024-04-19T00:37:12.011Z,5.35
2024-04-19T00:38:11.994Z,5.33
2024-04-19T00:39:12.135Z,5.38
2024-04-19T00:40:11.957Z,5.40
2024-04-19T00:41:11.946Z,5.47
2024-04-19T00:42:11.964Z,5.44
2024-04-19T00:43:11.911Z,5.33
2024-04-19T00:44:11.897Z,5.40
2024-04-19T00:45:11.892Z,5.30
2024-04-19T00:46:11.862Z,5.35
2024-04-19T00:47:11.845Z,5.24
2024-04-19T00:48:11.907Z,5.29
2024-04-19T00:49:11.809Z,5.20
2024-04-19T00:50:11.793Z,5.23
2024-04-19T00:51:12.025Z,5.20
2024-04-19T00:52:11.759Z,5.24
2024-04-19T00:53:11.751Z,5.24
2024-04-19T00:54:11.748Z,5.30
2024-04-19T00:55:11.713Z,5.27
2024-04-19T00:56:11.692Z,5.26
2024-04-19T00:57:11.684Z,5.22
2024-04-19T00:58:11.663Z,5.20
2024-04-19T00:59:11.644Z,5.22
2024-04-19T01:00:11.678Z,5.11
2024-04-19T01:01:11.660Z,5.11
2024-04-19T01:02:11.744Z,5.09
2024-04-19T01:03:11.618Z,5.09
2024-04-19T01:04:11.666Z,5.11
2024-04-19T01:05:11.547Z,5.06
2024-04-19T01:06:11.561Z,5.08
2024-04-19T01:07:11.522Z,5.08
2024-04-19T01:08:11.497Z,4.99
2024-04-19T01:09:11.560Z,5.05
2024-04-19T01:10:11.461Z,5.04
2024-04-19T01:11:11.463Z,4.94
2024-04-19T01:12:11.457Z,4.87
2024-04-19T01:13:11.408Z,4.96
2024-04-19T01:14:11.396Z,4.83
2024-04-19T01:15:11.428Z,4.80
2024-04-19T01:16:11.361Z,4.80
2024-04-19T01:17:11.365Z,4.80
2024-04-19T01:18:11.437Z,4.74
2024-04-19T01:19:11.382Z,4.86
2024-04-19T01:20:11.300Z,4.84
2024-04-19T01:21:11.281Z,4.74
2024-04-19T01:22:11.260Z,4.80
2024-04-19T01:23:11.258Z,4.83
2024-04-19T01:24:11.248Z,4.74
2024-04-19T01:25:11.222Z,4.84
2024-04-19T01:27:11.211Z,4.86
2024-04-19T01:28:11.169Z,4.74
2024-04-19T01:29:11.147Z,4.87
2024-04-19T01:30:11.154Z,4.86
2024-04-19T01:31:11.114Z,4.87
2024-04-19T01:32:11.100Z,4.93
2024-04-19T01:33:11.180Z,4.86
2024-04-19T01:34:11.092Z,4.86
2024-04-19T01:35:11.048Z,4.86
2024-04-19T01:36:11.054Z,4.77
2024-04-19T01:37:11.014Z,4.79
2024-04-19T01:38:10.999Z,4.79
2024-04-19T01:39:11.015Z,4.71
2024-04-19T01:40:10.974Z,4.80
2024-04-19T01:41:10.952Z,4.72
2024-04-19T01:42:10.999Z,4.72
2024-04-19T01:43:10.922Z,4.69
2024-04-19T01:44:10.903Z,4.69
2024-04-19T01:45:10.956Z,4.71
2024-04-19T01:46:10.871Z,4.68
2024-04-19T01:47:10.877Z,4.79
2024-04-19T01:48:10.896Z,4.79
2024-04-19T01:49:10.826Z,4.80
2024-04-19T01:50:10.802Z,4.80
2024-04-19T01:51:10.810Z,4.80
2024-04-19T01:52:10.768Z,4.84
2024-04-19T01:53:10.749Z,4.88
2024-04-19T01:54:10.803Z,4.94
2024-04-19T01:55:16.736Z,4.87
2024-04-19T01:56:10.722Z,4.88
2024-04-19T01:57:10.735Z,5.02
2024-04-19T01:58:10.688Z,5.02
2024-04-19T01:59:10.661Z,4.90
2024-04-19T02:00:10.697Z,4.87
2024-04-19T02:01:10.707Z,4.83
2024-04-19T02:02:10.634Z,4.80
2024-04-19T02:03:10.584Z,4.96
2024-04-19T02:04:10.643Z,4.96
2024-04-19T02:05:10.556Z,5.02
2024-04-19T02:06:10.574Z,5.02
2024-04-19T02:07:10.515Z,5.01
2024-04-19T02:08:10.506Z,4.97
2024-04-19T02:09:10.583Z,5.01
2024-04-19T02:10:10.464Z,5.05
2024-04-19T02:11:10.592Z,5.01
2024-04-19T02:12:10.463Z,4.96
2024-04-19T02:13:10.422Z,5.01
2024-04-19T02:14:10.399Z,4.97
2024-04-19T02:15:10.394Z,5.23
2024-04-19T02:16:10.367Z,5.24
2024-04-19T02:17:10.364Z,5.17
2024-04-19T02:18:10.364Z,5.06
2024-04-19T02:19:10.341Z,5.11
2024-04-19T02:20:10.306Z,5.06
2024-04-19T02:21:10.286Z,5.17
2024-04-19T02:22:10.267Z,5.23
2024-04-19T02:23:10.248Z,5.15
2024-04-19T02:24:10.251Z,5.12
2024-04-19T02:25:10.216Z,5.29
2024-04-19T02:26:10.206Z,5.19
2024-04-19T02:27:10.181Z,5.24
2024-04-19T02:28:10.198Z,5.35
2024-04-19T02:29:10.160Z,5.30
2024-04-19T02:30:10.138Z,5.58
2024-04-19T02:31:10.114Z,5.75
2024-04-19T02:32:10.098Z,5.58
2024-04-19T02:33:10.145Z,5.52
2024-04-19T02:34:10.136Z,5.48
2024-04-19T02:35:10.047Z,5.44
2024-04-19T02:36:10.032Z,5.38
2024-04-19T02:37:10.013Z,5.29
2024-04-19T02:38:10.001Z,5.40
2024-04-19T02:39:09.982Z,5.45
2024-04-19T02:40:09.976Z,5.35
2024-04-19T02:41:09.950Z,5.44
2024-04-19T02:42:09.937Z,5.42
2024-04-19T02:43:09.915Z,5.44
2024-04-19T02:44:09.906Z,5.44
2024-04-19T02:45:09.878Z,5.35
2024-04-19T02:46:09.933Z,5.40
2024-04-19T02:47:09.910Z,5.45
2024-04-19T02:48:09.836Z,5.49
2024-04-19T02:49:09.819Z,5.35
2024-04-19T02:50:09.803Z,5.33
2024-04-19T02:51:09.787Z,5.41
2024-04-19T02:52:09.778Z,5.38
2024-04-19T02:53:09.756Z,5.45
2024-04-19T02:54:09.753Z,5.37
2024-04-19T02:55:09.731Z,5.44
2024-04-19T02:56:09.706Z,5.40
2024-04-19T02:57:09.702Z,5.41
2024-04-19T02:58:09.687Z,5.38
2024-04-19T02:59:09.652Z,5.45
2024-04-19T03:00:09.677Z,5.33
2024-04-19T03:01:09.834Z,5.47
2024-04-19T03:02:09.605Z,5.48
2024-04-19T03:03:09.631Z,5.42
2024-04-19T03:04:09.818Z,5.48
2024-04-19T03:05:09.576Z,5.44
2024-04-19T03:06:09.578Z,5.41
2024-04-19T03:07:09.525Z,5.40
2024-04-19T03:08:09.506Z,5.44
2024-04-19T03:09:09.487Z,5.49
2024-04-19T03:10:09.476Z,5.37
2024-04-19T03:11:09.491Z,5.37
2024-04-19T03:12:09.455Z,5.44
2024-04-19T03:13:09.454Z,5.45
2024-04-19T03:14:09.408Z,5.42
2024-04-19T03:15:09.392Z,5.33
2024-04-19T03:16:09.392Z,5.44
2024-04-19T03:17:09.381Z,5.38
2024-04-19T03:18:09.407Z,5.55
2024-04-19T03:19:09.335Z,5.62
2024-04-19T03:20:09.307Z,5.56
2024-04-19T03:21:09.288Z,5.56
2024-04-19T03:22:09.294Z,5.56
2024-04-19T03:23:09.254Z,5.67
2024-04-19T03:24:09.239Z,5.66
2024-04-19T03:25:09.226Z,5.78
2024-04-19T03:26:09.239Z,5.66
2024-04-19T03:27:09.196Z,5.73
2024-04-19T03:28:09.173Z,5.75
2024-04-19T03:29:09.154Z,5.77
2024-04-19T03:30:09.146Z,5.74
2024-04-19T03:31:09.121Z,5.69
2024-04-19T03:32:09.112Z,5.73
2024-04-19T03:33:09.130Z,5.60
2024-04-19T03:34:09.322Z,5.63
2024-04-19T03:35:09.051Z,5.62
2024-04-19T03:36:09.054Z,5.69
2024-04-19T03:37:09.027Z,5.66
2024-04-19T03:38:09.010Z,5.62
2024-04-19T03:39:08.986Z,5.65
2024-04-19T03:40:08.996Z,5.59
2024-04-19T03:41:08.957Z,5.59
2024-04-19T03:42:08.937Z,5.67
2024-04-19T03:43:08.921Z,5.66
2024-04-19T03:44:08.919Z,5.67
2024-04-19T03:45:08.887Z,5.69
2024-04-19T03:46:08.871Z,5.77
2024-04-19T03:47:08.915Z,5.70
2024-04-19T03:48:08.964Z,5.78
2024-04-19T03:49:08.851Z,5.74
2024-04-19T03:50:08.833Z,5.59
2024-04-19T03:51:08.795Z,5.58
2024-04-19T03:52:08.765Z,5.63
2024-04-19T03:53:08.750Z,5.65
2024-04-19T03:54:08.737Z,5.65
2024-04-19T03:55:08.724Z,5.62
2024-04-19T03:56:08.707Z,5.70
2024-04-19T03:57:08.689Z,5.84
2024-04-19T03:58:08.682Z,5.96
2024-04-19T03:59:08.660Z,5.87
2024-04-19T04:00:08.648Z,5.83
2024-04-19T04:01:08.691Z,5.75
2024-04-19T04:02:08.609Z,5.87
2024-04-19T04:03:08.630Z,5.85
2024-04-19T04:04:08.629Z,5.98
2024-04-19T04:05:08.563Z,5.90
2024-04-19T04:06:08.542Z,5.93
2024-04-19T04:07:08.526Z,5.87
2024-04-19T04:08:08.522Z,5.70
2024-04-19T04:09:08.492Z,5.70
2024-04-19T04:10:08.471Z,5.67
2024-04-19T04:11:08.477Z,5.62
2024-04-19T04:12:08.440Z,5.75
2024-04-19T04:13:08.425Z,5.81
2024-04-19T04:14:08.409Z,6.02
2024-04-19T04:15:08.408Z,6.02
2024-04-19T04:16:08.399Z,5.93
2024-04-19T04:17:08.372Z,5.92
2024-04-19T04:18:08.552Z,5.93
2024-04-19T04:19:08.358Z,5.81
2024-04-19T04:20:08.339Z,5.74
2024-04-19T04:21:08.296Z,5.77
2024-04-19T04:22:08.277Z,5.80
2024-04-19T04:23:08.285Z,5.75
2024-04-19T04:24:08.251Z,5.74
2024-04-19T04:25:08.237Z,5.69
2024-04-19T04:26:08.214Z,5.75
2024-04-19T04:27:08.226Z,5.70
2024-04-19T04:28:08.395Z,5.63
2024-04-19T04:29:08.166Z,5.52
2024-04-19T04:30:08.153Z,5.58
2024-04-19T04:31:08.133Z,5.55
2024-04-19T04:32:08.244Z,5.52
2024-04-19T04:33:08.101Z,5.44
2024-04-19T04:34:08.107Z,5.44
2024-04-19T04:35:08.073Z,5.45
2024-04-19T04:36:08.072Z,5.45
2024-04-19T04:37:08.040Z,5.51
2024-04-19T04:38:08.029Z,5.45
2024-04-19T04:39:08.004Z,5.56
2024-04-19T04:40:08.004Z,5.47
2024-04-19T04:41:07.970Z,5.45
2024-04-19T04:42:07.954Z,5.67
2024-04-19T04:43:07.938Z,5.75
2024-04-19T04:44:08.179Z,5.88
2024-04-19T04:45:07.916Z,5.73
2024-04-19T04:46:07.901Z,5.73
2024-04-19T04:47:07.948Z,5.62
2024-04-19T04:48:07.869Z,5.58
2024-04-19T04:49:07.915Z,5.60
2024-04-19T04:50:07.822Z,5.55
2024-04-19T04:51:09.796Z,5.65
2024-04-19T04:52:07.801Z,5.56
2024-04-19T04:53:07.775Z,5.62
2024-04-19T04:54:07.767Z,5.63
2024-04-19T04:55:07.747Z,5.69
2024-04-19T04:56:07.724Z,5.95
2024-04-19T04:57:07.709Z,5.92
2024-04-19T04:58:07.753Z,5.93
2024-04-19T04:59:07.676Z,5.92
2024-04-19T05:00:07.660Z,6.10
2024-04-19T05:01:07.779Z,6.20
2024-04-19T05:02:07.630Z,6.30
2024-04-19T05:03:07.653Z,6.17
2024-04-19T05:04:07.638Z,6.21
2024-04-19T05:05:07.594Z,6.25
2024-04-19T05:06:07.557Z,6.27
2024-04-19T05:07:07.545Z,6.17
2024-04-19T05:08:07.531Z,6.16
2024-04-19T05:09:07.510Z,6.08
2024-04-19T05:10:07.497Z,6.14
2024-04-19T05:11:07.923Z,5.95
2024-04-19T05:12:07.464Z,5.93
2024-04-19T05:13:07.446Z,5.93
2024-04-19T05:14:07.431Z,5.85
2024-04-19T05:15:07.411Z,5.88
2024-04-19T05:16:07.392Z,5.87
2024-04-19T05:17:07.417Z,5.84
2024-04-19T05:18:07.428Z,5.93
2024-04-19T05:19:07.355Z,5.98
2024-04-19T05:20:07.332Z,5.90
2024-04-19T05:21:07.314Z,5.93
2024-04-19T05:22:07.294Z,5.88
2024-04-19T05:23:07.284Z,6.02
2024-04-19T05:24:07.269Z,5.99
2024-04-19T05:25:07.248Z,6.11
2024-04-19T05:26:07.232Z,6.13
2024-04-19T05:27:07.215Z,6.25
2024-04-19T05:28:07.191Z,6.19
2024-04-19T05:29:07.183Z,6.20
2024-04-19T05:30:07.177Z,6.05
2024-04-19T05:31:07.148Z,6.10
2024-04-19T05:32:07.223Z,6.17
2024-04-19T05:33:07.162Z,6.14
2024-04-19T05:34:07.097Z,6.30
2024-04-19T05:35:07.085Z,6.20
2024-04-19T05:36:07.063Z,6.24
2024-04-19T05:37:07.064Z,6.33
2024-04-19T05:38:07.026Z,6.33
2024-04-19T05:40:07.039Z,6.30
2024-04-19T05:41:07.178Z,6.50
2024-04-19T05:42:07.170Z,6.50
2024-04-19T05:43:06.955Z,6.46
2024-04-19T05:44:06.930Z,6.50
2024-04-19T05:45:06.929Z,6.40
2024-04-19T05:46:06.900Z,6.69
2024-04-19T05:47:06.942Z,6.65
2024-04-19T05:48:07.104Z,6.71
2024-04-19T05:49:06.986Z,6.60
2024-04-19T05:50:06.830Z,6.43
2024-04-19T05:51:06.829Z,6.32
2024-04-19T05:52:06.804Z,6.35
2024-04-19T05:53:06.777Z,6.28
2024-04-19T05:54:06.766Z,6.27
2024-04-19T05:55:06.767Z,6.35
2024-04-19T05:56:06.764Z,6.39
2024-04-19T05:57:06.963Z,6.32
2024-04-19T05:58:06.713Z,6.51
2024-04-19T06:00:06.685Z,6.65
2024-04-19T06:01:06.913Z,6.71
2024-04-19T06:02:06.654Z,6.64
2024-04-19T06:03:06.658Z,6.69
2024-04-19T06:04:06.609Z,6.65
2024-04-19T06:05:06.587Z,6.68
2024-04-19T06:06:06.581Z,6.75
2024-04-19T06:07:06.643Z,6.68
2024-04-19T06:08:06.535Z,6.64
2024-04-19T06:09:06.526Z,6.57
2024-04-19T06:10:06.534Z,6.69
2024-04-19T06:11:06.601Z,6.57
2024-04-19T06:12:06.540Z,6.64
2024-04-19T06:13:06.457Z,6.73
2024-04-19T06:14:06.435Z,6.64
2024-04-19T06:15:06.432Z,6.71
2024-04-19T06:16:06.428Z,6.79
2024-04-19T06:17:06.391Z,6.79
2024-04-19T06:18:06.496Z,6.81
2024-04-19T06:19:06.500Z,6.78
2024-04-19T06:20:06.349Z,6.68
2024-04-19T06:21:06.328Z,6.87
2024-04-19T06:22:06.313Z,6.90
2024-04-19T06:23:06.293Z,6.86
2024-04-19T06:24:06.283Z,6.91
2024-04-19T06:25:06.263Z,6.83
2024-04-19T06:26:06.331Z,7.04
2024-04-19T06:27:06.239Z,7.07
2024-04-19T06:28:06.228Z,7.15
2024-04-19T06:29:06.199Z,7.05
2024-04-19T06:30:06.189Z,7.12
2024-04-19T06:31:06.166Z,7.19
2024-04-19T06:32:06.205Z,7.23
2024-04-19T06:33:06.169Z,7.16
2024-04-19T06:34:06.116Z,7.21
2024-04-19T06:35:06.120Z,7.19
2024-04-19T06:36:06.104Z,7.14
2024-04-19T06:37:06.089Z,7.16
2024-04-19T06:38:06.052Z,7.26
2024-04-19T06:39:06.043Z,7.29
2024-04-19T06:40:07.999Z,7.47
2024-04-19T06:41:06.017Z,7.27
2024-04-19T06:42:06.000Z,7.48
2024-04-19T06:43:05.989Z,7.52
2024-04-19T06:44:05.967Z,7.70
2024-04-19T06:45:39.212Z,7.57
2024-04-19T06:46:05.951Z,7.57
2024-04-19T06:47:05.933Z,7.63
2024-04-19T06:48:05.973Z,7.70
2024-04-19T06:49:05.926Z,7.74
2024-04-19T06:50:05.864Z,7.81
2024-04-19T06:51:05.846Z,7.79
2024-04-19T06:52:05.866Z,7.71
2024-04-19T06:53:05.818Z,7.70
2024-04-19T06:54:05.806Z,7.74
2024-04-19T06:55:05.782Z,7.66
2024-04-19T06:56:05.770Z,7.69
2024-04-19T06:57:05.757Z,7.77
2024-04-19T06:58:05.772Z,7.76
2024-04-19T06:59:05.730Z,7.94
2024-04-19T07:00:16.143Z,7.94
2024-04-19T07:01:15.980Z,7.95
2024-04-19T07:02:05.713Z,7.96
2024-04-19T07:03:08.821Z,8.12
2024-04-19T07:04:05.760Z,8.10
2024-04-19T07:05:05.656Z,8.14
2024-04-19T07:06:05.627Z,8.10
2024-04-19T07:07:05.622Z,8.17
2024-04-19T07:08:05.595Z,8.18
2024-04-19T07:09:05.595Z,8.18
2024-04-19T07:10:05.686Z,8.10
2024-04-19T07:11:05.552Z,8.04
2024-04-19T07:12:05.572Z,8.28
2024-04-19T07:13:05.873Z,8.28
2024-04-19T07:14:05.487Z,8.31
2024-04-19T07:15:05.474Z,8.31
2024-04-19T07:16:05.482Z,8.37
2024-04-19T07:17:05.544Z,8.45
2024-04-19T07:18:05.536Z,8.39
2024-04-19T07:19:05.416Z,8.45
2024-04-19T07:20:05.396Z,8.36
2024-04-19T07:21:05.431Z,8.40
2024-04-19T07:22:05.388Z,8.34
2024-04-19T07:23:05.360Z,8.31
2024-04-19T07:24:05.386Z,8.28
2024-04-19T07:25:05.319Z,8.40
2024-04-19T07:26:05.316Z,8.36
2024-04-19T07:27:05.291Z,8.42
2024-04-19T07:28:05.340Z,8.39
2024-04-19T07:29:05.262Z,8.42
2024-04-19T07:30:05.249Z,8.46
2024-04-19T07:31:05.222Z,8.43
2024-04-19T07:32:05.253Z,8.49
2024-04-19T07:33:05.294Z,8.50
2024-04-19T07:34:05.234Z,8.52
2024-04-19T07:35:05.216Z,8.49
2024-04-19T07:36:38.384Z,8.64
2024-04-19T07:37:05.173Z,8.64
2024-04-19T07:38:05.139Z,8.54
2024-04-19T07:39:05.137Z,8.64
2024-04-19T07:40:05.099Z,8.63
2024-04-19T07:41:05.119Z,8.71
2024-04-19T07:42:05.059Z,8.71
2024-04-19T07:43:05.112Z,8.73
2024-04-19T07:44:05.027Z,8.75
2024-04-19T07:45:05.031Z,8.79
2024-04-19T07:46:05.011Z,8.85
2024-04-19T07:47:04.991Z,8.86
2024-04-19T07:48:05.090Z,8.83
2024-04-19T07:49:05.129Z,8.89
2024-04-19T07:50:04.946Z,8.83
2024-04-19T07:51:04.928Z,8.88
2024-04-19T07:52:04.927Z,8.89
2024-04-19T07:53:04.897Z,8.93
2024-04-19T07:54:04.882Z,8.91
2024-04-19T07:55:05.073Z,9.00
2024-04-19T07:56:04.847Z,8.97
2024-04-19T07:57:04.841Z,9.19
2024-04-19T07:58:04.831Z,9.16
2024-04-19T07:59:04.811Z,9.12
2024-04-19T08:00:04.792Z,9.17
2024-04-19T08:01:04.821Z,9.27
2024-04-19T08:02:04.799Z,9.30
2024-04-19T08:03:04.746Z,9.30
2024-04-19T08:04:05.166Z,9.44
2024-04-19T08:05:04.713Z,9.37
2024-04-19T08:06:04.703Z,9.38
2024-04-19T08:07:04.686Z,9.37
2024-04-19T08:08:04.683Z,9.42
2024-04-19T08:09:04.661Z,9.35
2024-04-19T08:10:04.661Z,9.38
2024-04-19T08:11:04.632Z,9.41
2024-04-19T08:12:04.642Z,9.31
2024-04-19T08:13:04.668Z,9.40
2024-04-19T08:14:04.588Z,9.45
2024-04-19T08:15:04.581Z,9.42
2024-04-19T08:16:04.572Z,9.50
2024-04-19T08:17:04.840Z,9.37
2024-04-19T08:18:04.787Z,9.35
2024-04-19T08:19:04.525Z,9.37
2024-04-19T08:20:04.508Z,9.44
2024-04-19T08:21:04.863Z,9.45
2024-04-19T08:22:04.773Z,9.59
2024-04-19T08:23:04.704Z,9.65
2024-04-19T08:24:04.780Z,9.62
2024-04-19T08:25:04.826Z,9.68
2024-04-19T08:26:04.422Z,9.75
2024-04-19T08:27:04.415Z,9.74
2024-04-19T08:28:04.479Z,9.77
2024-04-19T08:29:11.865Z,9.65
2024-04-19T08:30:04.356Z,9.77
2024-04-19T08:31:04.333Z,9.80
2024-04-19T08:32:04.342Z,9.81
2024-04-19T08:33:04.326Z,9.80
2024-04-19T08:34:04.410Z,9.80
2024-04-19T08:35:04.276Z,9.85
2024-04-19T08:36:04.266Z,9.80
2024-04-19T08:37:04.251Z,9.93
2024-04-19T08:38:04.241Z,10.01
2024-04-19T08:39:04.216Z,10.07
2024-04-19T08:40:04.367Z,10.13
2024-04-19T08:41:04.216Z,10.26
2024-04-19T08:42:04.201Z,10.28
2024-04-19T08:43:04.206Z,10.38
2024-04-19T08:44:04.164Z,10.49
2024-04-19T08:45:04.145Z,10.44
2024-04-19T08:46:04.761Z,10.42
2024-04-19T08:47:04.111Z,10.54
2024-04-19T08:48:04.136Z,10.52
2024-04-19T08:49:04.135Z,10.52
2024-04-19T08:50:04.074Z,10.63
2024-04-19T08:51:04.059Z,10.75
2024-04-19T08:52:20.710Z,10.70
2024-04-19T08:53:14.756Z,10.72
2024-04-19T08:54:04.013Z,10.68
2024-04-19T08:55:03.998Z,10.73
2024-04-19T08:56:03.987Z,10.76
2024-04-19T08:57:03.968Z,10.72
2024-04-19T08:58:03.973Z,10.73
2024-04-19T08:59:03.938Z,10.87
2024-04-19T09:00:11.183Z,10.86
2024-04-19T09:01:04.162Z,10.93
2024-04-19T09:02:03.900Z,10.87
2024-04-19T09:03:04.103Z,10.87
2024-04-19T09:04:03.932Z,10.94
2024-04-19T09:05:03.863Z,10.95
2024-04-19T09:06:03.853Z,11.01
2024-04-19T09:07:03.832Z,10.94
2024-04-19T09:08:03.834Z,11.01
2024-04-19T09:09:03.825Z,10.94
2024-04-19T09:10:06.045Z,11.01
2024-04-19T09:11:03.774Z,11.03
2024-04-19T09:12:03.767Z,11.17
2024-04-19T09:13:03.762Z,11.24
2024-04-19T09:14:03.879Z,11.23
2024-04-19T09:15:03.731Z,11.33
2024-04-19T09:16:03.744Z,11.24
2024-04-19T09:17:03.735Z,11.16
2024-04-19T09:18:03.694Z,11.20
2024-04-19T09:19:03.677Z,11.20
2024-04-19T09:20:03.673Z,11.26
2024-04-19T09:21:03.644Z,11.03
2024-04-19T09:22:03.635Z,11.06
2024-04-19T09:23:03.620Z,11.01
2024-04-19T09:24:03.609Z,10.95
2024-04-19T09:25:03.596Z,10.88
2024-04-19T09:26:03.594Z,10.75
2024-04-19T09:27:13.955Z,10.80
2024-04-19T09:28:03.572Z,10.86
2024-04-19T09:29:03.540Z,10.75
2024-04-19T09:30:03.596Z,10.95
2024-04-19T09:31:03.510Z,11.01
2024-04-19T09:32:03.510Z,11.13
2024-04-19T09:33:03.525Z,11.12
2024-04-19T09:34:03.510Z,11.20
2024-04-19T09:35:03.455Z,11.26
2024-04-19T09:36:03.447Z,11.35
2024-04-19T09:37:03.446Z,11.39
2024-04-19T09:38:03.434Z,11.38
2024-04-19T09:39:03.405Z,11.48
2024-04-19T09:40:03.403Z,11.31
2024-04-19T09:41:03.386Z,11.36
2024-04-19T09:42:03.374Z,11.30
2024-04-19T09:43:04.798Z,11.24
2024-04-19T09:44:03.343Z,11.24
2024-04-19T09:45:03.328Z,11.41
2024-04-19T09:46:03.328Z,11.28
2024-04-19T09:47:03.417Z,11.19
2024-04-19T09:48:03.289Z,11.38
2024-04-19T09:49:03.324Z,11.26
2024-04-19T09:50:03.278Z,11.24
2024-04-19T09:51:03.252Z,11.27
2024-04-19T09:52:03.242Z,11.35
2024-04-19T09:53:03.223Z,11.45
2024-04-19T09:54:03.245Z,11.46
2024-04-19T09:55:03.195Z,11.48
2024-04-19T09:56:03.184Z,11.38
2024-04-19T09:57:03.175Z,11.33
2024-04-19T09:58:03.174Z,11.39
2024-04-19T09:59:03.142Z,11.41
2024-04-19T10:00:03.128Z,11.38
2024-04-19T10:01:03.199Z,11.24
2024-04-19T10:02:03.218Z,11.06
2024-04-19T10:03:03.198Z,11.06
2024-04-19T10:04:03.196Z,11.17
2024-04-19T10:05:03.192Z,11.17
2024-04-19T10:06:03.050Z,11.09
2024-04-19T10:07:03.161Z,11.08
2024-04-19T10:08:03.042Z,11.16
2024-04-19T10:09:03.007Z,11.16
2024-04-19T10:10:02.995Z,11.24
2024-04-19T10:11:03.076Z,11.16
2024-04-19T10:12:02.970Z,11.24
2024-04-19T10:13:02.991Z,11.26
2024-04-19T10:14:02.943Z,11.16
2024-04-19T10:15:02.926Z,11.08
2024-04-19T10:16:02.948Z,11.02
2024-04-19T10:17:02.909Z,10.99
2024-04-19T10:18:04.035Z,10.83
2024-04-19T10:19:02.950Z,10.90
2024-04-19T10:20:02.869Z,10.87
2024-04-19T10:21:02.847Z,10.86
2024-04-19T10:22:02.849Z,10.83
2024-04-19T10:23:02.822Z,10.78
2024-04-19T10:24:02.809Z,10.80
2024-04-19T10:25:02.905Z,10.69
2024-04-19T10:26:02.782Z,10.70
2024-04-19T10:27:02.767Z,10.62
2024-04-19T10:28:02.755Z,10.62
2024-04-19T10:29:02.769Z,10.58
2024-04-19T10:30:02.743Z,10.65
2024-04-19T10:31:07.035Z,10.60
2024-04-19T10:32:02.741Z,10.58
2024-04-19T10:33:02.733Z,10.65
2024-04-19T10:34:02.687Z,10.57
2024-04-19T10:35:02.738Z,10.55
2024-04-19T10:36:03.209Z,10.47
2024-04-19T10:37:02.635Z,10.55
2024-04-19T10:38:02.633Z,10.52
2024-04-19T10:39:02.607Z,10.57
2024-04-19T10:40:02.591Z,10.49
2024-04-19T10:41:02.582Z,10.49
2024-04-19T10:42:02.604Z,10.62
2024-04-19T10:43:02.579Z,10.68
2024-04-19T10:44:02.552Z,10.63
2024-04-19T10:45:02.547Z,10.60
2024-04-19T10:46:02.539Z,10.57
2024-04-19T10:47:02.525Z,10.54
2024-04-19T10:48:02.540Z,10.39
2024-04-19T10:49:02.632Z,10.44
2024-04-19T10:50:02.465Z,10.55
2024-04-19T10:51:02.454Z,10.57
2024-04-19T10:52:02.476Z,10.52
2024-04-19T10:53:02.429Z,10.62
2024-04-19T10:54:02.401Z,10.78
2024-04-19T10:55:02.532Z,10.70
2024-04-19T10:56:02.372Z,10.73
2024-04-19T10:57:02.369Z,10.91
2024-04-19T10:58:02.346Z,10.87
2024-04-19T10:59:02.340Z,11.03
2024-04-19T11:00:02.335Z,10.86
2024-04-19T11:01:02.372Z,10.83
2024-04-19T11:02:02.323Z,10.90
2024-04-19T11:03:10.143Z,10.66
2024-04-19T11:04:02.380Z,10.76
2024-04-19T11:05:02.262Z,10.84
2024-04-19T11:06:02.240Z,10.93
2024-04-19T11:07:02.294Z,10.91
2024-04-19T11:08:02.213Z,10.93
2024-04-19T11:09:02.196Z,11.02
2024-04-19T11:10:02.232Z,10.95
2024-04-19T11:11:02.196Z,11.08
2024-04-19T11:12:02.183Z,11.01
2024-04-19T11:13:02.174Z,10.94
2024-04-19T11:14:02.120Z,11.05
2024-04-19T11:15:02.177Z,11.03
2024-04-19T11:16:02.145Z,10.98
2024-04-19T11:17:02.081Z,11.05
2024-04-19T11:18:02.180Z,10.94
2024-04-19T11:19:02.133Z,10.99
2024-04-19T11:20:02.078Z,11.09
2024-04-19T11:21:08.315Z,11.01
2024-04-19T11:22:02.105Z,11.02
2024-04-19T11:23:02.025Z,11.11
2024-04-19T11:24:01.983Z,11.09
2024-04-19T11:25:02.063Z,11.09
2024-04-19T11:26:01.960Z,11.09
2024-04-19T11:27:01.947Z,11.11
2024-04-19T11:28:01.992Z,11.06
2024-04-19T11:29:01.917Z,10.99
2024-04-19T11:30:01.933Z,11.02
2024-04-19T11:31:01.920Z,11.06
2024-04-19T11:32:01.883Z,11.06
2024-04-19T11:33:01.924Z,11.06
2024-04-19T11:34:01.906Z,11.11
2024-04-19T11:35:01.856Z,11.01
2024-04-19T11:36:01.828Z,11.05
2024-04-19T11:37:01.850Z,10.99
2024-04-19T11:38:01.817Z,11.02
2024-04-19T11:39:01.831Z,10.95
2024-04-19T11:40:01.818Z,11.01
2024-04-19T11:41:01.763Z,10.95
2024-04-19T11:42:01.746Z,10.95
2024-04-19T11:43:01.806Z,10.91
2024-04-19T11:44:01.724Z,10.81
2024-04-19T11:45:01.700Z,10.76
2024-04-19T11:46:01.762Z,10.65
2024-04-19T11:47:01.678Z,10.65
2024-04-19T11:48:01.894Z,10.62
2024-04-19T11:49:01.691Z,10.49
2024-04-19T11:50:01.659Z,10.34
2024-04-19T11:51:01.642Z,10.34
2024-04-19T11:52:01.672Z,10.31
2024-04-19T11:53:01.603Z,10.24
2024-04-19T11:54:01.594Z,10.13
2024-04-19T11:55:01.621Z,10.06
2024-04-19T11:56:01.558Z,10.04
2024-04-19T11:57:01.563Z,9.92
2024-04-19T11:58:01.688Z,9.96
2024-04-19T11:59:01.527Z,9.88
2024-04-19T12:00:01.504Z,10.09
2024-04-19T12:01:01.648Z,10.11
2024-04-19T12:02:01.482Z,10.06
2024-04-19T12:03:01.537Z,9.93
2024-04-19T12:04:01.649Z,9.99
2024-04-19T12:05:01.509Z,9.98
2024-04-19T12:06:01.446Z,10.10
2024-04-19T12:07:01.523Z,10.11
2024-04-19T12:08:01.396Z,10.18
2024-04-19T12:09:01.384Z,10.29
2024-04-19T12:10:01.450Z,10.42
2024-04-19T12:11:01.394Z,10.46
2024-04-19T12:14:56.767Z,10.65
2024-04-19T12:15:44.662Z,10.69
2024-04-19T12:16:31.886Z,10.69
2024-04-19T12:17:09.513Z,10.76
2024-04-19T12:18:01.741Z,10.66
2024-04-19T12:19:01.518Z,10.76
2024-04-19T12:20:08.062Z,10.80
2024-04-19T12:21:01.615Z,10.83
2024-04-19T12:22:02.587Z,10.75
2024-04-19T12:23:05.917Z,10.69
2024-04-19T12:24:01.678Z,10.69
2024-04-19T12:25:02.141Z,10.55
2024-04-19T12:26:02.606Z,10.54
2024-04-19T12:27:01.293Z,10.47
2024-04-19T12:28:01.388Z,10.57
2024-04-19T12:29:01.260Z,10.70
2024-04-19T12:30:01.147Z,10.58
2024-04-19T12:31:01.128Z,10.72
2024-04-19T12:32:01.104Z,10.49
2024-04-19T12:33:01.155Z,10.38
2024-04-19T12:34:01.218Z,10.38
2024-04-19T12:35:01.035Z,10.54
2024-04-19T12:36:01.089Z,10.55
2024-04-19T12:37:01.148Z,10.62
2024-04-19T12:38:00.974Z,10.69
2024-04-19T12:39:00.978Z,10.81
2024-04-19T12:40:01.178Z,10.69
2024-04-19T12:41:00.942Z,10.90
2024-04-19T12:42:00.927Z,10.94
2024-04-19T12:43:00.991Z,11.01
2024-04-19T12:44:00.888Z,10.87
2024-04-19T12:45:00.883Z,10.76
2024-04-19T12:46:01.034Z,10.73
2024-04-19T12:47:00.852Z,10.65
2024-04-19T12:48:01.016Z,10.83
2024-04-19T12:49:00.962Z,10.73
2024-04-19T12:50:00.810Z,10.62
2024-04-19T12:51:00.883Z,10.58
2024-04-19T12:52:00.878Z,10.70
2024-04-19T12:53:00.822Z,10.72
2024-04-19T12:54:00.878Z,10.73
2024-04-19T12:55:00.870Z,10.58
2024-04-19T12:56:00.840Z,10.52
2024-04-19T12:57:00.870Z,10.42
2024-04-19T12:58:00.809Z,10.34
2024-04-19T12:59:00.783Z,10.36
2024-04-19T13:00:00.800Z,10.36
2024-04-19T13:01:00.931Z,10.39
2024-04-19T13:02:00.689Z,10.35
2024-04-19T13:03:01.065Z,10.38
2024-04-19T13:04:00.676Z,10.38
2024-04-19T13:05:00.631Z,10.42
2024-04-19T13:06:00.743Z,10.35
2024-04-19T13:07:00.666Z,10.32
2024-04-19T13:08:00.811Z,10.38
2024-04-19T13:09:00.549Z,10.39
2024-04-19T13:10:00.690Z,10.31
2024-04-19T13:11:00.550Z,10.31
2024-04-19T13:12:00.544Z,10.29
2024-04-19T13:13:00.498Z,10.29
2024-04-19T13:14:00.481Z,10.29